createdAt,value
2023-04-06T00:00:00.275Z,10.55
2023-04-06T00:02:02.935Z,9.75
2023-04-06T00:04:05.930Z,10.75
2023-04-06T00:06:08.682Z,11.07
2023-04-06T00:08:11.631Z,11.38
2023-04-06T00:10:15.702Z,11.43
2023-04-06T00:12:18.266Z,11.30
2023-04-06T00:14:21.082Z,11.10
2023-04-06T00:16:25.066Z,11.57
2023-04-06T00:18:28.086Z,11.23
2023-04-06T00:20:30.646Z,10.07
2023-04-06T00:22:33.191Z,10.65
2023-04-06T00:24:36.010Z,11.10
2023-04-06T00:26:39.913Z,10.70
2023-04-06T00:28:42.473Z,11.30
2023-04-06T00:30:45.034Z,11.43
2023-04-06T00:32:47.635Z,10.90
2023-04-06T00:34:50.211Z,10.98
2023-04-06T00:36:52.758Z,10.73
2023-04-06T00:38:55.989Z,10.68
2023-04-06T00:40:58.557Z,10.82
2023-04-06T00:43:02.540Z,12.00
2023-04-06T00:45:05.613Z,11.25
2023-04-06T00:47:08.453Z,11.98
2023-04-06T00:49:11.137Z,11.93
2023-04-06T00:51:13.708Z,11.13
2023-04-06T00:53:16.259Z,11.55
2023-04-06T00:55:18.918Z,12.25
2023-04-06T00:57:21.560Z,11.63
2023-04-06T00:59:26.039Z,11.70
2023-04-06T01:01:29.701Z,13.07
2023-04-06T01:03:32.446Z,13.52
2023-04-06T01:05:35.540Z,16.70
2023-04-06T01:07:38.087Z,15.02
2023-04-06T01:09:43.023Z,14.32
2023-04-06T01:11:45.629Z,14.23
2023-04-06T01:13:48.528Z,14.13
2023-04-06T01:15:53.023Z,14.63
2023-04-06T01:17:55.680Z,13.00
2023-04-06T01:19:58.310Z,13.57
2023-04-06T01:22:00.955Z,13.32
2023-04-06T01:24:05.341Z,13.18
2023-04-06T01:26:07.928Z,13.20
2023-04-06T01:28:10.468Z,12.55
2023-04-06T01:30:13.490Z,12.70
2023-04-06T01:32:16.094Z,12.10
2023-04-06T01:34:18.658Z,18.75
2023-04-06T01:36:21.506Z,15.45
2023-04-06T01:38:24.058Z,17.23
2023-04-06T01:40:27.928Z,14.38
2023-04-06T01:42:31.291Z,14.75
2023-04-06T01:44:33.878Z,13.52
2023-04-06T01:46:36.471Z,12.40
2023-04-06T01:48:39.090Z,13.43
2023-04-06T01:50:41.715Z,12.95
2023-04-06T01:52:44.332Z,13.27
2023-04-06T01:54:46.925Z,12.23
2023-04-06T01:56:51.579Z,13.30
2023-04-06T01:58:54.448Z,12.63
2023-04-06T02:00:57.048Z,12.13
2023-04-06T02:02:59.685Z,11.90
2023-04-06T02:05:02.289Z,11.38
2023-04-06T02:07:04.892Z,11.65
2023-04-06T02:09:07.816Z,12.10
2023-04-06T02:11:10.632Z,12.40
2023-04-06T02:13:14.510Z,10.98
2023-04-06T02:15:17.593Z,11.38
2023-04-06T02:17:20.171Z,11.18
2023-04-06T02:19:23.378Z,10.43
2023-04-06T02:21:25.942Z,11.38
2023-04-06T02:23:28.566Z,10.82
2023-04-06T02:25:31.144Z,9.98
2023-04-06T02:27:33.814Z,11.70
2023-04-06T02:29:37.768Z,10.80
2023-04-06T02:31:40.542Z,10.20
2023-04-06T02:33:43.125Z,10.98
2023-04-06T02:35:46.417Z,10.68
2023-04-06T02:37:49.023Z,10.75
2023-04-06T02:39:51.650Z,10.70
2023-04-06T02:41:54.229Z,10.98
2023-04-06T02:43:56.746Z,11.10
2023-04-06T02:46:00.719Z,10.45
2023-04-06T02:48:03.546Z,10.52
2023-04-06T02:50:06.990Z,11.63
2023-04-06T02:52:09.553Z,10.25
2023-04-06T02:54:12.097Z,11.77
2023-04-06T02:56:14.665Z,11.13
2023-04-06T02:58:17.238Z,10.32
2023-04-06T03:00:20.645Z,10.73
2023-04-06T03:02:24.992Z,11.27
2023-04-06T03:04:27.620Z,11.25
2023-04-06T03:06:30.184Z,9.68
2023-04-06T03:08:32.727Z,10.07
2023-04-06T03:10:35.295Z,11.45
2023-04-06T03:12:40.381Z,10.10
2023-04-06T03:14:42.978Z,10.57
2023-04-06T03:16:45.757Z,10.93
2023-04-06T03:18:49.629Z,11.50
2023-04-06T03:20:54.728Z,10.80
2023-04-06T03:22:57.315Z,11.00
2023-04-06T03:25:02.274Z,11.63
2023-04-06T03:27:07.199Z,10.25
2023-04-06T03:29:10.001Z,10.73
2023-04-06T03:31:12.745Z,10.73
2023-04-06T03:33:15.267Z,10.98
2023-04-06T03:35:19.290Z,11.88
2023-04-06T03:37:21.880Z,11.25
2023-04-06T03:39:24.400Z,11.27
2023-04-06T03:41:27.307Z,11.15
2023-04-06T03:43:29.989Z,12.07
2023-04-06T03:45:32.560Z,10.75
2023-04-06T03:47:35.106Z,11.48
2023-04-06T03:49:39.860Z,11.80
2023-04-06T03:51:44.504Z,12.45
2023-04-06T03:53:47.058Z,11.85
2023-04-06T03:55:49.626Z,11.20
2023-04-06T03:57:52.303Z,12.32
2023-04-06T03:59:54.861Z,12.02
2023-04-06T04:01:57.473Z,12.93
2023-04-06T04:04:00.526Z,12.43
2023-04-06T04:06:03.315Z,11.38
2023-04-06T04:08:07.403Z,12.38
2023-04-06T04:10:11.208Z,11.80
2023-04-06T04:12:15.580Z,11.40
2023-04-06T04:14:18.126Z,11.80
2023-04-06T04:16:20.749Z,10.68
2023-04-06T04:18:23.341Z,11.98
2023-04-06T04:20:26.152Z,11.23
2023-04-06T04:22:29.660Z,11.48
2023-04-06T04:24:33.540Z,11.38
2023-04-06T04:26:36.354Z,12.55
2023-04-06T04:28:38.932Z,11.68
2023-04-06T04:30:41.554Z,11.70
2023-04-06T04:32:44.124Z,12.80
2023-04-06T04:34:46.708Z,11.88
2023-04-06T04:36:49.280Z,12.70
2023-04-06T04:38:51.838Z,11.60
2023-04-06T04:40:55.915Z,11.27
2023-04-06T04:42:58.475Z,12.20
2023-04-06T04:45:01.059Z,11.70
2023-04-06T04:47:03.683Z,11.43
2023-04-06T04:49:06.408Z,11.98
2023-04-06T04:51:09.188Z,11.55
2023-04-06T04:53:11.802Z,12.25
2023-04-06T04:55:14.386Z,11.27
2023-04-06T04:57:18.361Z,11.93
2023-04-06T04:59:20.920Z,13.13
2023-04-06T05:01:23.678Z,13.73
2023-04-06T05:03:28.290Z,13.20
2023-04-06T05:05:30.980Z,14.20
2023-04-06T05:07:33.578Z,14.05
2023-04-06T05:09:36.242Z,13.73
2023-04-06T05:11:38.820Z,13.48
2023-04-06T05:13:42.854Z,13.20
2023-04-06T05:15:45.496Z,13.57
2023-04-06T05:17:50.224Z,12.32
2023-04-06T05:19:52.819Z,13.02
2023-04-06T05:21:55.409Z,14.43
2023-04-06T05:23:58.024Z,13.50
2023-04-06T05:26:01.110Z,12.35
2023-04-06T05:28:03.699Z,12.40
2023-04-06T05:30:09.191Z,12.85
2023-04-06T05:32:12.079Z,13.05
2023-04-06T05:34:14.832Z,13.50
2023-04-06T05:36:17.392Z,12.63
2023-04-06T05:38:19.919Z,13.70
2023-04-06T05:40:24.619Z,12.48
2023-04-06T05:42:28.020Z,12.70
2023-04-06T05:44:30.612Z,12.35
2023-04-06T05:46:34.554Z,13.05
2023-04-06T05:48:37.112Z,12.02
2023-04-06T05:50:39.670Z,12.38
2023-04-06T05:52:44.028Z,12.40
2023-04-06T05:54:46.737Z,12.63
2023-04-06T05:56:49.277Z,13.65
2023-04-06T05:58:51.847Z,13.38
2023-04-06T06:00:58.795Z,13.93
2023-04-06T06:03:05.121Z,13.48
2023-04-06T06:05:08.256Z,13.05
2023-04-06T06:07:10.981Z,13.32
2023-04-06T06:09:13.545Z,12.93
2023-04-06T06:11:16.090Z,13.98
2023-04-06T06:13:18.632Z,12.65
2023-04-06T06:15:21.626Z,13.52
2023-04-06T06:17:24.291Z,13.65
2023-04-06T06:19:28.211Z,13.43
2023-04-06T06:21:31.670Z,14.10
2023-04-06T06:23:34.232Z,14.35
2023-04-06T06:25:36.779Z,14.35
2023-04-06T06:27:39.307Z,14.82
2023-04-06T06:29:41.851Z,14.80
2023-04-06T06:31:44.438Z,14.32
2023-04-06T06:33:47.016Z,13.50
2023-04-06T06:35:51.105Z,13.70
2023-04-06T06:37:53.735Z,14.52
2023-04-06T06:39:56.293Z,13.60
2023-04-06T06:42:01.475Z,14.07
2023-04-06T06:44:04.221Z,14.10
2023-04-06T06:46:07.545Z,13.27
2023-04-06T06:48:10.153Z,13.68
2023-04-06T06:50:12.812Z,13.00
2023-04-06T06:52:16.866Z,12.68
2023-04-06T06:54:19.394Z,13.70
2023-04-06T06:56:21.982Z,13.35
2023-04-06T06:58:24.673Z,12.60
2023-04-06T07:00:27.287Z,13.20
2023-04-06T07:02:29.898Z,12.43
2023-04-06T07:04:32.493Z,12.13
2023-04-06T07:06:35.532Z,12.30
2023-04-06T07:08:39.437Z,13.40
2023-04-06T07:10:42.024Z,12.50
2023-04-06T07:12:44.695Z,13.30
2023-04-06T07:14:47.257Z,12.07
2023-04-06T07:16:51.015Z,13.23
2023-04-06T07:18:53.687Z,12.38
2023-04-06T07:20:56.273Z,12.75
2023-04-06T07:22:58.794Z,11.75
2023-04-06T07:25:02.762Z,12.25
2023-04-06T07:27:05.924Z,11.38
2023-04-06T07:29:08.492Z,12.55
2023-04-06T07:31:11.323Z,12.43
2023-04-06T07:33:13.867Z,11.95
2023-04-06T07:35:16.962Z,11.85
2023-04-06T07:37:19.796Z,12.13
2023-04-06T07:39:22.376Z,11.82
2023-04-06T07:41:26.520Z,11.50
2023-04-06T07:43:29.085Z,11.73
2023-04-06T07:45:31.974Z,13.25
2023-04-06T07:47:34.541Z,11.65
2023-04-06T07:49:37.124Z,13.27
2023-04-06T07:51:40.223Z,13.27
2023-04-06T07:53:42.883Z,12.48
2023-04-06T07:55:45.467Z,12.15
2023-04-06T07:57:49.388Z,12.82
2023-04-06T07:59:51.973Z,12.35
2023-04-06T08:01:54.695Z,12.35
2023-04-06T08:03:57.641Z,12.63
2023-04-06T08:06:03.333Z,12.18
2023-04-06T08:08:06.240Z,13.20
2023-04-06T08:10:09.448Z,12.80
2023-04-06T08:12:11.977Z,12.55
2023-04-06T08:14:18.036Z,13.13
2023-04-06T08:16:21.098Z,12.50
2023-04-06T08:18:23.744Z,12.40
2023-04-06T08:20:26.311Z,12.50
2023-04-06T08:22:28.845Z,13.05
2023-04-06T08:24:33.240Z,12.63
2023-04-06T08:26:36.002Z,12.35
2023-04-06T08:28:39.009Z,12.20
2023-04-06T08:30:44.069Z,12.27
2023-04-06T08:32:46.691Z,13.40
2023-04-06T08:34:49.264Z,13.20
2023-04-06T08:36:52.119Z,13.43
2023-04-06T08:38:54.877Z,12.40
2023-04-06T08:40:57.456Z,12.45
2023-04-06T08:43:05.012Z,12.07
2023-04-06T08:45:09.985Z,11.73
2023-04-06T08:47:13.874Z,12.18
2023-04-06T08:49:18.260Z,13.07
2023-04-06T08:51:21.133Z,12.88
2023-04-06T08:53:24.365Z,11.65
2023-04-06T08:55:27.103Z,12.07
2023-04-06T08:57:30.411Z,13.60
2023-04-06T08:59:33.572Z,10.90
2023-04-06T09:01:42.121Z,12.00
2023-04-06T09:03:47.820Z,10.52
2023-04-06T09:05:51.131Z,11.60
2023-04-06T09:07:53.973Z,10.63
2023-04-06T09:09:56.578Z,11.25
2023-04-06T09:12:04.415Z,11.57
2023-04-06T09:14:07.262Z,11.15
2023-04-06T09:16:10.054Z,11.25
2023-04-06T09:18:12.613Z,11.30
2023-04-06T09:20:17.991Z,10.98
2023-04-06T09:22:21.141Z,11.23
2023-04-06T09:24:27.122Z,11.15
2023-04-06T09:26:29.919Z,11.88
2023-04-06T09:28:43.345Z,10.93
2023-04-06T09:30:50.225Z,10.85
2023-04-06T09:32:55.689Z,11.02
2023-04-06T09:35:07.800Z,11.60
2023-04-06T09:37:18.931Z,10.57
2023-04-06T09:39:24.233Z,10.70
2023-04-06T09:41:27.705Z,11.52
2023-04-06T09:43:31.070Z,11.25
2023-04-06T09:45:34.206Z,10.52
2023-04-06T09:47:38.757Z,10.50
2023-04-06T09:49:41.497Z,11.15
2023-04-06T09:51:48.164Z,11.05
2023-04-06T09:53:55.576Z,11.00
2023-04-06T09:56:04.296Z,11.60
2023-04-06T09:58:08.407Z,11.57
2023-04-06T10:00:14.314Z,10.63
2023-04-06T10:02:23.038Z,10.40
2023-04-06T10:04:38.755Z,10.75
2023-04-06T10:06:41.735Z,10.60
2023-04-06T10:08:47.609Z,9.98
2023-04-06T10:10:53.108Z,10.43
2023-04-06T10:12:56.615Z,10.15
2023-04-06T10:14:59.703Z,11.07
2023-04-06T10:17:03.976Z,10.63
2023-04-06T10:19:12.044Z,9.60
2023-04-06T10:21:21.910Z,10.10
2023-04-06T10:23:38.221Z,9.00
2023-04-06T10:25:40.769Z,8.82
2023-04-06T10:27:44.689Z,9.57
2023-04-06T10:29:49.671Z,9.73
2023-04-06T10:31:52.281Z,8.35
2023-04-06T10:33:58.553Z,8.90
2023-04-06T10:36:12.051Z,7.75
2023-04-06T10:38:15.423Z,7.55
2023-04-06T10:40:28.709Z,8.43
2023-04-06T10:42:39.221Z,8.40
2023-04-06T10:44:46.513Z,7.68
2023-04-06T10:46:55.196Z,8.07
2023-04-06T10:48:58.669Z,8.50
2023-04-06T10:51:01.230Z,8.38
2023-04-06T10:53:07.184Z,8.10
2023-04-06T10:55:11.813Z,7.43
2023-04-06T10:57:14.857Z,8.73
2023-04-06T10:59:21.981Z,9.13
2023-04-06T11:01:27.548Z,8.50
2023-04-06T11:03:30.261Z,7.95
2023-04-06T11:05:33.089Z,7.32
2023-04-06T11:07:35.974Z,7.75
2023-04-06T11:09:38.538Z,7.60
2023-04-06T11:11:41.264Z,6.28
2023-04-06T11:13:45.835Z,7.07
2023-04-06T11:15:50.049Z,6.50
2023-04-06T11:17:54.116Z,7.13
2023-04-06T11:19:56.948Z,6.13
2023-04-06T11:22:09.035Z,6.72
2023-04-06T11:24:12.971Z,6.47
2023-04-06T11:26:16.039Z,7.00
2023-04-06T11:28:18.640Z,6.97
2023-04-06T11:30:21.453Z,6.75
2023-04-06T11:32:25.456Z,7.47
2023-04-06T11:34:31.096Z,7.82
2023-04-06T11:36:33.641Z,6.57
2023-04-06T11:38:36.311Z,6.93
2023-04-06T11:40:38.983Z,6.60
2023-04-06T11:42:41.567Z,6.65
2023-04-06T11:44:47.004Z,6.43
2023-04-06T11:46:58.664Z,5.72
2023-04-06T11:49:02.277Z,6.72
2023-04-06T11:51:07.814Z,6.57
2023-04-06T11:53:10.366Z,6.78
2023-04-06T11:55:15.229Z,5.72
2023-04-06T11:57:18.874Z,6.75
2023-04-06T11:59:22.312Z,5.80
2023-04-06T12:01:25.305Z,6.28
2023-04-06T12:03:28.035Z,5.75
2023-04-06T12:05:30.913Z,6.18
2023-04-06T12:07:35.654Z,6.43
2023-04-06T12:09:38.301Z,7.45
2023-04-06T12:11:41.766Z,6.30
2023-04-06T12:13:44.294Z,7.03
2023-04-06T12:15:46.838Z,6.43
2023-04-06T12:17:49.732Z,6.32
2023-04-06T12:19:52.563Z,6.20
2023-04-06T12:21:55.809Z,6.28
2023-04-06T12:23:59.770Z,6.13
2023-04-06T12:26:02.694Z,5.65
2023-04-06T12:28:05.459Z,6.10
2023-04-06T12:30:09.606Z,6.20
2023-04-06T12:32:12.692Z,5.70
2023-04-06T12:34:15.277Z,5.50
2023-04-06T12:36:20.049Z,6.45
2023-04-06T12:38:22.857Z,5.90
2023-04-06T12:40:26.870Z,5.38
2023-04-06T12:42:29.423Z,6.10
2023-04-06T12:44:32.026Z,5.43
2023-04-06T12:46:34.708Z,6.93
2023-04-06T12:48:37.468Z,6.60
2023-04-06T12:50:40.011Z,6.47
2023-04-06T12:52:42.539Z,6.35
2023-04-06T12:54:45.841Z,5.65
2023-04-06T12:56:49.778Z,6.07
2023-04-06T12:58:53.507Z,5.97
2023-04-06T13:00:56.961Z,5.82
2023-04-06T13:02:59.697Z,7.13
2023-04-06T13:05:02.283Z,6.70
2023-04-06T13:07:04.856Z,5.47
2023-04-06T13:09:08.713Z,6.47
2023-04-06T13:11:11.348Z,5.80
2023-04-06T13:13:15.993Z,5.85
2023-04-06T13:15:18.612Z,5.50
2023-04-06T13:17:22.027Z,6.10
2023-04-06T13:19:24.628Z,5.80
2023-04-06T13:21:27.276Z,6.47
2023-04-06T13:23:30.127Z,6.07
2023-04-06T13:25:33.637Z,6.43
2023-04-06T13:27:36.860Z,6.28
2023-04-06T13:29:40.944Z,6.20
2023-04-06T13:31:43.537Z,6.70
2023-04-06T13:33:46.255Z,5.80
2023-04-06T13:35:49.329Z,5.32
2023-04-06T13:37:53.164Z,5.20
2023-04-06T13:39:55.916Z,4.57
2023-04-06T13:41:58.459Z,4.60
2023-04-06T13:44:01.165Z,4.28
2023-04-06T13:46:05.438Z,4.10
2023-04-06T13:48:08.431Z,4.60
2023-04-06T13:50:11.363Z,4.13
2023-04-06T13:52:13.925Z,4.97
2023-04-06T13:54:16.523Z,4.25
2023-04-06T13:56:19.040Z,4.75
2023-04-06T13:58:21.635Z,4.13
2023-04-06T14:00:24.791Z,4.25
2023-04-06T14:02:28.723Z,4.80
2023-04-06T14:04:31.661Z,3.83
2023-04-06T14:06:34.237Z,4.32
2023-04-06T14:08:36.847Z,4.43
2023-04-06T14:10:41.068Z,3.92
2023-04-06T14:12:45.152Z,4.03
2023-04-06T14:14:47.883Z,4.28
2023-04-06T14:16:50.696Z,3.35
2023-04-06T14:18:54.592Z,3.80
2023-04-06T14:20:58.256Z,4.07
2023-04-06T14:23:02.264Z,3.92
2023-04-06T14:25:05.041Z,3.83
2023-04-06T14:27:07.611Z,4.55
2023-04-06T14:29:10.495Z,4.43
2023-04-06T14:31:16.096Z,4.50
2023-04-06T14:33:18.747Z,4.35
2023-04-06T14:35:22.675Z,4.63
2023-04-06T14:37:25.300Z,4.40
2023-04-06T14:39:27.836Z,4.53
2023-04-06T14:41:30.612Z,5.03
2023-04-06T14:43:33.206Z,4.10
2023-04-06T14:45:37.643Z,4.72
2023-04-06T14:47:40.299Z,4.30
2023-04-06T14:49:42.905Z,4.88
2023-04-06T14:51:46.838Z,4.70
2023-04-06T14:53:49.358Z,4.97
2023-04-06T14:55:52.392Z,4.22
2023-04-06T14:57:55.046Z,4.75
2023-04-06T14:59:57.564Z,4.68
2023-04-06T15:02:04.065Z,4.55
2023-04-06T15:04:07.848Z,3.90
2023-04-06T15:06:16.391Z,4.07
2023-04-06T15:08:21.675Z,4.78
2023-04-06T15:10:24.270Z,4.93
2023-04-06T15:12:26.817Z,4.35
2023-04-06T15:14:29.395Z,3.80
2023-04-06T15:16:33.368Z,4.40
2023-04-06T15:18:36.431Z,4.65
2023-04-06T15:20:39.388Z,4.30
2023-04-06T15:22:41.971Z,4.95
2023-04-06T15:24:46.057Z,4.30
2023-04-06T15:26:48.605Z,4.50
2023-04-06T15:28:51.344Z,4.35
2023-04-06T15:30:54.022Z,4.68
2023-04-06T15:32:59.379Z,4.78
2023-04-06T15:35:02.039Z,4.63
2023-04-06T15:37:04.912Z,4.50
2023-04-06T15:39:09.746Z,4.40
2023-04-06T15:41:15.651Z,4.80
2023-04-06T15:43:19.314Z,4.68
2023-04-06T15:45:22.110Z,5.18
2023-04-06T15:47:24.804Z,4.53
2023-04-06T15:49:27.473Z,4.57
2023-04-06T15:51:30.281Z,4.70
2023-04-06T15:53:33.509Z,5.25
2023-04-06T15:55:36.072Z,4.95
2023-04-06T15:57:40.087Z,5.03
2023-04-06T15:59:42.697Z,5.75
2023-04-06T16:01:47.128Z,4.72
2023-04-06T16:03:49.926Z,5.05
2023-04-06T16:08:02.376Z,4.95
2023-04-06T16:10:08.356Z,4.95
2023-04-06T16:12:10.990Z,4.78
2023-04-06T16:14:14.987Z,4.70
2023-04-06T16:16:17.609Z,4.85
2023-04-06T16:18:20.534Z,5.32
2023-04-06T16:20:23.207Z,4.47
2023-04-06T16:22:25.882Z,4.65
2023-04-06T16:24:28.498Z,4.72
2023-04-06T16:26:31.775Z,4.70
2023-04-06T16:28:34.332Z,5.43
2023-04-06T16:30:40.450Z,4.75
2023-04-06T16:32:46.542Z,4.28
2023-04-06T16:34:49.286Z,4.43
2023-04-06T16:36:52.551Z,4.18
2023-04-06T16:38:55.824Z,4.72
2023-04-06T16:41:01.548Z,4.65
2023-04-06T16:43:05.039Z,4.25
2023-04-06T16:45:08.891Z,4.05
2023-04-06T16:47:13.141Z,4.32
2023-04-06T16:49:17.407Z,4.10
2023-04-06T16:51:19.952Z,4.60
2023-04-06T16:53:22.542Z,4.70
2023-04-06T16:55:25.333Z,4.88
2023-04-06T16:57:29.594Z,5.03
2023-04-06T16:59:32.569Z,4.65
2023-04-06T17:01:35.381Z,4.20
2023-04-06T17:03:39.399Z,4.55
2023-04-06T17:05:42.085Z,4.47
2023-04-06T17:07:45.010Z,4.10
2023-04-06T17:09:49.028Z,4.93
2023-04-06T17:11:51.620Z,4.03
2023-04-06T17:13:54.214Z,4.10
2023-04-06T17:15:56.755Z,3.70
2023-04-06T17:17:59.343Z,4.03
2023-04-06T17:20:03.627Z,3.70
2023-04-06T17:22:06.425Z,3.88
2023-04-06T17:24:09.622Z,4.07
2023-04-06T17:26:12.276Z,4.78
2023-04-06T17:28:14.946Z,5.30
2023-04-06T17:30:18.499Z,6.03
2023-04-06T17:32:21.889Z,6.15
2023-04-06T17:34:24.501Z,5.50
2023-04-06T17:36:28.819Z,5.47
2023-04-06T17:38:32.252Z,5.22
2023-04-06T17:40:35.944Z,5.00
2023-04-06T17:42:38.518Z,5.13
2023-04-06T17:44:41.228Z,4.32
2023-04-06T17:46:43.783Z,4.55
2023-04-06T17:48:47.058Z,4.55
2023-04-06T17:50:49.635Z,5.22
2023-04-06T17:52:53.595Z,4.65
2023-04-06T17:54:56.579Z,5.43
2023-04-06T17:56:59.149Z,6.55
2023-04-06T17:59:02.563Z,7.43
2023-04-06T18:01:08.203Z,7.18
2023-04-06T18:03:10.962Z,7.85
2023-04-06T18:05:13.822Z,8.52
2023-04-06T18:07:16.393Z,7.63
2023-04-06T18:09:20.308Z,7.95
2023-04-06T18:11:23.246Z,8.23
2023-04-06T18:13:28.593Z,8.40
2023-04-06T18:15:31.464Z,8.43
2023-04-06T18:17:34.249Z,8.70
2023-04-06T18:19:36.808Z,8.02
2023-04-06T18:21:39.361Z,8.52
2023-04-06T18:23:41.959Z,7.82
2023-04-06T18:25:45.959Z,6.18
2023-04-06T18:27:48.527Z,6.50
2023-04-06T18:29:51.223Z,6.40
2023-04-06T18:31:55.087Z,6.43
2023-04-06T18:33:58.449Z,6.68
2023-04-06T18:36:01.218Z,5.43
2023-04-06T18:38:03.762Z,5.18
2023-04-06T18:40:07.729Z,5.32
2023-04-06T18:42:11.695Z,6.88
2023-04-06T18:44:14.286Z,6.78
2023-04-06T18:46:19.748Z,5.60
2023-04-06T18:48:22.431Z,5.90
2023-04-06T18:50:25.005Z,5.45
2023-04-06T18:52:27.550Z,5.03
2023-04-06T18:54:30.057Z,4.80
2023-04-06T18:56:33.221Z,4.53
2023-04-06T18:58:37.106Z,4.85
2023-04-06T19:00:41.014Z,3.70
2023-04-06T19:02:43.853Z,3.78
2023-04-06T19:04:46.542Z,3.40
2023-04-06T19:06:49.207Z,3.05
2023-04-06T19:08:51.873Z,3.40
2023-04-06T19:10:54.444Z,3.20
2023-04-06T19:12:57.507Z,3.20
2023-04-06T19:15:01.397Z,5.40
2023-04-06T19:17:03.946Z,3.53
2023-04-06T19:19:06.538Z,3.40
2023-04-06T19:21:16.693Z,3.50
2023-04-06T19:23:19.328Z,3.72
2023-04-06T19:25:21.909Z,3.03
2023-04-06T19:27:24.482Z,3.50
2023-04-06T19:29:27.045Z,3.33
2023-04-06T19:31:31.027Z,2.95
2023-04-06T19:33:33.751Z,3.10
2023-04-06T19:35:36.295Z,2.53
2023-04-06T19:37:39.155Z,2.40
2023-04-06T19:39:44.055Z,2.65
2023-04-06T19:41:46.663Z,2.40
2023-04-06T19:43:49.254Z,2.30
2023-04-06T19:45:52.074Z,2.55
2023-04-06T19:47:56.127Z,3.38
2023-04-06T19:49:58.778Z,3.17
2023-04-06T19:52:01.343Z,3.50
2023-04-06T19:54:04.175Z,3.42
2023-04-06T19:56:06.731Z,3.15
2023-04-06T19:58:09.441Z,3.20
2023-04-06T20:00:13.036Z,3.45
2023-04-06T20:02:15.769Z,3.60
2023-04-06T20:04:19.951Z,3.60
2023-04-06T20:06:22.574Z,3.88
2023-04-06T20:08:25.301Z,4.60
2023-04-06T20:10:27.858Z,5.10
2023-04-06T20:12:30.397Z,4.32
2023-04-06T20:14:32.927Z,4.63
2023-04-06T20:16:35.994Z,4.38
2023-04-06T20:18:38.615Z,4.30
2023-04-06T20:20:42.531Z,4.30
2023-04-06T20:22:46.195Z,4.53
2023-04-06T20:24:48.756Z,4.40
2023-04-06T20:26:51.392Z,5.55
2023-04-06T20:28:54.138Z,4.88
2023-04-06T20:30:57.747Z,4.63
2023-04-06T20:33:00.525Z,4.88
2023-04-06T20:35:03.110Z,4.75
2023-04-06T20:37:09.219Z,4.75
2023-04-06T20:39:11.874Z,5.32
2023-04-06T20:41:14.627Z,4.63
2023-04-06T20:43:17.566Z,4.95
2023-04-06T20:45:20.375Z,4.50
2023-04-06T20:47:23.166Z,4.72
2023-04-06T20:49:25.739Z,5.20
2023-04-06T20:51:28.271Z,5.43
2023-04-06T20:53:32.360Z,5.60
2023-04-06T20:55:35.071Z,5.78
2023-04-06T20:57:37.661Z,5.30
2023-04-06T20:59:40.370Z,5.82
2023-04-06T21:01:43.827Z,5.53
2023-04-06T21:03:46.524Z,5.15
2023-04-06T21:05:52.728Z,5.63
2023-04-06T21:07:55.443Z,5.25
2023-04-06T21:09:59.340Z,6.07
2023-04-06T21:12:01.881Z,4.97
2023-04-06T21:14:04.483Z,5.53
2023-04-06T21:16:07.660Z,5.28
2023-04-06T21:18:10.487Z,5.30
2023-04-06T21:20:13.072Z,5.57
2023-04-06T21:22:15.790Z,5.82
2023-04-06T21:24:18.966Z,6.05
2023-04-06T21:26:23.146Z,5.93
2023-04-06T21:28:26.102Z,6.28
2023-04-06T21:30:28.722Z,5.85
2023-04-06T21:32:31.422Z,7.05
2023-04-06T21:34:34.163Z,6.10
2023-04-06T21:36:36.984Z,6.72
2023-04-06T21:38:39.867Z,6.60
2023-04-06T21:40:42.658Z,7.10
2023-04-06T21:42:46.588Z,6.63
2023-04-06T21:44:49.595Z,6.65
2023-04-06T21:46:52.264Z,6.60
2023-04-06T21:48:54.905Z,7.53
2023-04-06T21:50:57.471Z,7.68
2023-04-06T21:53:00.074Z,7.70
2023-04-06T21:55:04.250Z,6.80
2023-04-06T21:57:07.218Z,6.93
2023-04-06T21:59:11.733Z,7.78
2023-04-06T22:01:14.614Z,7.50
2023-04-06T22:03:18.228Z,7.03
2023-04-06T22:05:21.401Z,7.68
2023-04-06T22:07:23.995Z,7.10
2023-04-06T22:09:27.086Z,7.90
2023-04-06T22:11:30.144Z,7.43
2023-04-06T22:13:32.785Z,7.25
2023-04-06T22:15:37.135Z,7.05
2023-04-06T22:17:39.773Z,8.48
2023-04-06T22:19:42.346Z,7.25
2023-04-06T22:21:45.475Z,6.82
2023-04-06T22:23:48.289Z,7.05
2023-04-06T22:25:51.082Z,7.30
2023-04-06T22:27:53.614Z,6.68
2023-04-06T22:29:56.233Z,6.28
2023-04-06T22:32:00.233Z,6.75
2023-04-06T22:34:02.969Z,6.10
2023-04-06T22:36:06.172Z,6.10
2023-04-06T22:38:08.872Z,5.80
2023-04-06T22:40:12.513Z,6.78
2023-04-06T22:42:15.093Z,6.05
2023-04-06T22:44:17.855Z,6.03
2023-04-06T22:46:20.529Z,5.95
2023-04-06T22:48:24.478Z,6.05
2023-04-06T22:50:27.633Z,5.80
2023-04-06T22:52:30.351Z,6.03
2023-04-06T22:54:32.960Z,6.32
2023-04-06T22:56:36.120Z,6.22
2023-04-06T22:58:38.649Z,7.00
2023-04-06T23:00:41.191Z,6.28
2023-04-06T23:02:44.164Z,7.22
2023-04-06T23:04:48.141Z,6.07
2023-04-06T23:06:50.948Z,6.32
2023-04-06T23:08:53.542Z,6.47
2023-04-06T23:10:56.116Z,7.68
2023-04-06T23:12:58.701Z,6.05
2023-04-06T23:15:01.341Z,6.80
2023-04-06T23:17:04.010Z,6.78
2023-04-06T23:19:06.628Z,6.75
2023-04-06T23:21:10.571Z,6.72
2023-04-06T23:23:13.127Z,6.55
2023-04-06T23:25:15.676Z,6.78
2023-04-06T23:27:18.433Z,8.15
2023-04-06T23:29:21.247Z,6.93
2023-04-06T23:31:23.771Z,7.28
2023-04-06T23:33:26.972Z,7.60
2023-04-06T23:35:29.538Z,7.95
2023-04-06T23:37:33.417Z,6.82
2023-04-06T23:39:36.400Z,6.97
2023-04-06T23:41:38.983Z,7.10
2023-04-06T23:43:41.509Z,7.35
2023-04-06T23:45:44.131Z,7.05
2023-04-06T23:47:46.832Z,7.50
2023-04-06T23:49:49.398Z,7.63
2023-04-06T23:51:51.957Z,7.78
2023-04-06T23:53:55.902Z,7.32
2023-04-06T23:55:58.636Z,7.57
2023-04-06T23:58:01.856Z,7.80
